Time;durP1;ratioP1;P1;durP2;ratioP2;P2;SDS_P1;SDS_P2;PMS_P1;PMS_P2;Temp;Humidity;BMP_temperature;BMP_pressure;BME280_temperature;BME280_humidity;BME280_pressure;Samples;Min_cycle;Max_cycle;Signal;HPM_P1;HPM_P2
2023/01/05 00:00:53;;;;;;;24.50;3.60;;;;;;;;;;5112629;28;20070;-72
2023/01/05 00:03:19;;;;;;;25.15;3.63;;;;;;;;;;5115486;28;20067;-72
2023/01/05 00:05:45;;;;;;;21.40;3.47;;;;;;;;;;5115778;28;20051;-72
2023/01/05 00:08:12;;;;;;;25.55;3.60;;;;;;;;;;5114531;28;20047;-72
2023/01/05 00:24:27;;;;;;;20.85;4.03;;;;;;;;;;5115262;28;20051;-72
2023/01/05 00:26:53;;;;;;;22.27;3.55;;;;;;;;;;5094694;28;20044;-72
2023/01/05 00:29:19;;;;;;;17.10;3.13;;;;;;;;;;5105480;28;20048;-72
2023/01/05 00:31:45;;;;;;;18.83;3.85;;;;;;;;;;5111509;28;20044;-71
2023/01/05 00:34:11;;;;;;;22.67;3.75;;;;;;;;;;5100517;28;20451;-72
2023/01/05 00:36:39;;;;;;;20.98;3.42;;;;;;;;;;5107902;28;20079;-72
2023/01/05 00:39:05;;;;;;;22.00;3.90;;;;;;;;;;5111179;28;20051;-72
2023/01/05 00:41:31;;;;;;;20.63;3.17;;;;;;;;;;5109222;27;20116;-73
2023/01/05 00:43:57;;;;;;;23.00;3.58;;;;;;;;;;5113973;28;20040;-73
2023/01/05 00:46:23;;;;;;;24.45;3.80;;;;;;;;;;5112681;28;20035;-71
2023/01/05 00:48:49;;;;;;;22.83;4.13;;;;;;;;;;5094583;28;20044;-72
2023/01/05 00:51:15;;;;;;;29.60;3.83;;;;;;;;;;5110757;27;20050;-71
2023/01/05 00:53:41;;;;;;;22.15;3.70;;;;;;;;;;5135255;27;20397;-72
2023/01/05 00:56:07;;;;;;;25.00;3.80;;;;;;;;;;5134911;27;20398;-72
2023/01/05 00:58:33;;;;;;;21.45;3.97;;;;;;;;;;5135253;27;20039;-72
2023/01/05 01:00:59;;;;;;;26.73;4.43;;;;;;;;;;5112988;27;20039;-71
2023/01/05 01:03:26;;;;;;;23.60;4.43;;;;;;;;;;5114347;28;20052;-72
2023/01/05 01:05:58;;;;;;;24.67;4.47;;;;;;;;;;5114390;28;20071;-72
2023/01/05 01:08:24;;;;;;;23.15;4.03;;;;;;;;;;5114140;28;20039;-72
2023/01/05 01:10:50;;;;;;;26.35;3.78;;;;;;;;;;5113394;28;20504;-71
2023/01/05 01:13:16;;;;;;;27.52;4.55;;;;;;;;;;5114205;28;20050;-71
2023/01/05 01:15:42;;;;;;;27.98;4.32;;;;;;;;;;5112573;28;20039;-71
2023/01/05 01:18:08;;;;;;;22.10;3.90;;;;;;;;;;5094259;28;20078;-71
2023/01/05 01:20:36;;;;;;;29.95;4.28;;;;;;;;;;5094660;28;20048;-72
2023/01/05 01:23:03;;;;;;;19.63;3.95;;;;;;;;;;5131084;27;20040;-72
2023/01/05 01:25:29;;;;;;;28.83;4.25;;;;;;;;;;5128162;27;20093;-72
2023/01/05 01:27:55;;;;;;;24.88;4.00;;;;;;;;;;5114191;28;20055;-71
2023/01/05 01:30:21;;;;;;;21.83;3.85;;;;;;;;;;5114052;28;20048;-72
2023/01/05 01:32:47;;;;;;;23.02;4.45;;;;;;;;;;5111809;28;20051;-72
2023/01/05 01:35:13;;;;;;;22.95;4.32;;;;;;;;;;5112774;28;20046;-71
2023/01/05 01:37:40;;;;;;;20.75;3.80;;;;;;;;;;5113696;28;20067;-71
2023/01/05 01:40:07;;;;;;;23.67;4.03;;;;;;;;;;5113750;28;20386;-71
2023/01/05 01:42:33;;;;;;;21.70;3.80;;;;;;;;;;5118114;27;20054;-72
2023/01/05 01:45:01;;;;;;;24.42;4.45;;;;;;;;;;5130851;27;20050;-71
2023/01/05 01:47:27;;;;;;;25.42;4.25;;;;;;;;;;5124707;27;20096;-72
2023/01/05 01:49:54;;;;;;;22.40;3.60;;;;;;;;;;5110867;28;20083;-71
2023/01/05 01:52:22;;;;;;;22.40;3.90;;;;;;;;;;5099590;28;20046;-72
2023/01/05 01:54:50;;;;;;;26.65;4.18;;;;;;;;;;5099899;28;20486;-72
2023/01/05 01:57:16;;;;;;;23.58;3.80;;;;;;;;;;5109753;28;20553;-72
2023/01/05 01:59:42;;;;;;;25.00;3.75;;;;;;;;;;5112823;28;20043;-72
2023/01/05 02:02:08;;;;;;;28.40;4.43;;;;;;;;;;5111898;28;20409;-71
2023/01/05 02:04:36;;;;;;;22.80;3.95;;;;;;;;;;5113474;28;20040;-72
2023/01/05 02:07:02;;;;;;;21.52;3.55;;;;;;;;;;5112601;28;20044;-71
2023/01/05 02:09:28;;;;;;;26.17;4.40;;;;;;;;;;5113565;28;20035;-71
2023/01/05 02:12:03;;;;;;;24.90;3.72;;;;;;;;;;5119130;27;20508;-72
2023/01/05 02:14:48;;;;;;;27.02;3.90;;;;;;;;;;5125816;27;20414;-71
2023/01/05 02:17:23;;;;;;;21.80;3.90;;;;;;;;;;5113076;28;20516;-71
2023/01/05 02:19:55;;;;;;;26.77;4.28;;;;;;;;;;5113387;28;20040;-72
2023/01/05 02:22:40;;;;;;;20.65;3.80;;;;;;;;;;5110170;28;20048;-71
2023/01/05 02:25:06;;;;;;;24.17;3.92;;;;;;;;;;5112218;28;20043;-71
2023/01/05 02:27:51;;;;;;;26.08;4.50;;;;;;;;;;5113038;28;20038;-71
2023/01/05 02:30:35;;;;;;;19.55;3.53;;;;;;;;;;5113352;28;20035;-71
2023/01/05 02:33:20;;;;;;;28.63;4.10;;;;;;;;;;5113598;28;20047;-71
2023/01/05 02:36:09;;;;;;;26.25;4.45;;;;;;;;;;5111911;28;20088;-71
2023/01/05 02:38:42;;;;;;;23.52;4.00;;;;;;;;;;5111846;28;20040;-71
2023/01/05 02:41:28;;;;;;;24.20;3.97;;;;;;;;;;5108221;28;20048;-71
2023/01/05 02:43:56;;;;;;;23.48;4.03;;;;;;;;;;5092788;28;20063;-72
2023/01/05 02:46:22;;;;;;;20.70;3.88;;;;;;;;;;5092764;28;20043;-71
2023/01/05 02:48:51;;;;;;;25.00;4.18;;;;;;;;;;5113154;28;20043;-72
2023/01/05 02:51:27;;;;;;;22.80;3.90;;;;;;;;;;5109678;28;20190;-71
2023/01/05 02:53:58;;;;;;;24.13;4.22;;;;;;;;;;5117063;28;20527;-72
2023/01/05 02:56:36;;;;;;;26.30;4.13;;;;;;;;;;5127897;27;20048;-71
2023/01/05 02:59:06;;;;;;;26.50;3.85;;;;;;;;;;5105501;28;20036;-72
2023/01/05 03:01:35;;;;;;;18.35;3.60;;;;;;;;;;5098806;28;20052;-71
2023/01/05 03:04:05;;;;;;;28.10;4.20;;;;;;;;;;5101338;28;20044;-71
2023/01/05 03:06:55;;;;;;;22.80;3.78;;;;;;;;;;5109520;28;20044;-72
2023/01/05 03:09:24;;;;;;;22.48;3.40;;;;;;;;;;5095864;28;20383;-71
2023/01/05 03:14:52;;;;;;;21.83;3.20;;;;;;;;;;5114499;28;20078;-71
2023/01/05 03:17:21;;;;;;;23.05;3.97;;;;;;;;;;5116525;28;20043;-72
2023/01/05 03:19:49;;;;;;;24.30;4.30;;;;;;;;;;5114443;28;20036;-71
2023/01/05 03:36:40;;;;;;;18.58;3.92;;;;;;;;;;5114551;28;20047;-71
2023/01/05 03:39:07;;;;;;;29.73;4.95;;;;;;;;;;5116343;28;20051;-72
2023/01/05 03:41:34;;;;;;;26.65;3.97;;;;;;;;;;5116428;27;20054;-71
2023/01/05 03:44:00;;;;;;;22.38;4.00;;;;;;;;;;5137026;27;20071;-72
2023/01/05 03:46:27;;;;;;;19.48;3.40;;;;;;;;;;5135757;27;20043;-71
2023/01/05 03:48:53;;;;;;;30.77;4.82;;;;;;;;;;5114751;28;20048;-71
2023/01/05 03:51:19;;;;;;;24.50;3.85;;;;;;;;;;5111908;28;20078;-72
2023/01/05 03:53:45;;;;;;;25.58;4.40;;;;;;;;;;5114469;28;20063;-71
2023/01/05 03:56:11;;;;;;;29.65;4.50;;;;;;;;;;5100267;28;20055;-72
2023/01/05 03:58:37;;;;;;;22.90;4.15;;;;;;;;;;5111255;28;20039;-72
2023/01/05 04:01:04;;;;;;;22.17;3.78;;;;;;;;;;5100031;28;20515;-71
2023/01/05 04:03:30;;;;;;;23.55;4.15;;;;;;;;;;5112425;27;20056;-71
2023/01/05 04:05:57;;;;;;;25.10;4.07;;;;;;;;;;5107538;28;20048;-71
2023/01/05 04:08:23;;;;;;;26.95;4.63;;;;;;;;;;5114965;28;20050;-72
2023/01/05 04:10:52;;;;;;;26.27;4.68;;;;;;;;;;5098092;28;20092;-71
2023/01/05 04:13:18;;;;;;;21.98;3.75;;;;;;;;;;5121574;27;20043;-71
2023/01/05 04:15:44;;;;;;;23.77;4.25;;;;;;;;;;5109859;28;20047;-72
2023/01/05 04:18:10;;;;;;;24.20;4.75;;;;;;;;;;5115256;28;20044;-71
2023/01/05 04:20:36;;;;;;;25.42;4.43;;;;;;;;;;5106914;28;20043;-71
2023/01/05 04:23:02;;;;;;;24.95;4.20;;;;;;;;;;5110880;28;20051;-72
2023/01/05 04:25:28;;;;;;;28.90;4.97;;;;;;;;;;5112470;28;20042;-72
2023/01/05 04:27:54;;;;;;;25.67;4.07;;;;;;;;;;5112995;28;20040;-71
2023/01/05 04:30:20;;;;;;;27.88;4.93;;;;;;;;;;5114049;28;20097;-72
2023/01/05 04:32:46;;;;;;;25.15;4.20;;;;;;;;;;5113969;28;20058;-71
2023/01/05 04:35:12;;;;;;;24.60;4.60;;;;;;;;;;5115224;27;20474;-71
2023/01/05 04:37:39;;;;;;;27.35;4.45;;;;;;;;;;5115174;27;20036;-71
2023/01/05 04:40:05;;;;;;;23.10;4.18;;;;;;;;;;5109751;28;20039;-71
2023/01/05 04:42:31;;;;;;;23.55;4.38;;;;;;;;;;5114166;28;20043;-71
2023/01/05 04:44:57;;;;;;;22.40;4.22;;;;;;;;;;5125630;27;20447;-73
2023/01/05 04:47:23;;;;;;;26.02;4.32;;;;;;;;;;5098309;27;20079;-72
2023/01/05 04:49:49;;;;;;;25.08;4.53;;;;;;;;;;5095455;28;20051;-72
2023/01/05 04:52:15;;;;;;;23.25;4.72;;;;;;;;;;5114618;28;20096;-72
2023/01/05 04:54:41;;;;;;;25.55;4.28;;;;;;;;;;5120983;27;20043;-72
2023/01/05 04:57:07;;;;;;;27.25;4.75;;;;;;;;;;5113501;28;20455;-72
2023/01/05 04:59:33;;;;;;;28.25;4.90;;;;;;;;;;5114445;27;20136;-72
2023/01/05 05:02:00;;;;;;;23.75;4.22;;;;;;;;;;5114511;28;20049;-72
2023/01/05 05:04:26;;;;;;;24.67;4.35;;;;;;;;;;5112500;28;20417;-72
2023/01/05 05:06:52;;;;;;;28.10;4.50;;;;;;;;;;5114450;28;20090;-72
2023/01/05 05:09:18;;;;;;;18.33;3.63;;;;;;;;;;5114474;28;20156;-72
2023/01/05 05:11:44;;;;;;;30.35;4.20;;;;;;;;;;5114300;28;20043;-72
2023/01/05 05:14:10;;;;;;;29.25;4.70;;;;;;;;;;5108916;27;20047;-72
2023/01/05 05:16:36;;;;;;;24.35;4.13;;;;;;;;;;5100058;27;20039;-72
2023/01/05 05:19:02;;;;;;;26.20;4.22;;;;;;;;;;5113609;28;20069;-72
2023/01/05 05:21:28;;;;;;;24.45;4.30;;;;;;;;;;5114242;28;20062;-72
2023/01/05 05:23:54;;;;;;;24.73;4.07;;;;;;;;;;5112918;28;20048;-72
2023/01/05 05:26:20;;;;;;;27.90;3.65;;;;;;;;;;5113294;28;20044;-72
2023/01/05 05:28:46;;;;;;;19.58;3.80;;;;;;;;;;5113927;28;20044;-72
2023/01/05 05:31:12;;;;;;;20.90;3.90;;;;;;;;;;5113174;28;20051;-72
2023/01/05 05:33:40;;;;;;;24.75;4.47;;;;;;;;;;5109793;28;20043;-72
2023/01/05 05:36:06;;;;;;;24.80;4.03;;;;;;;;;;5113866;28;20132;-72
2023/01/05 05:38:32;;;;;;;25.65;4.93;;;;;;;;;;5113941;28;20035;-72
2023/01/05 05:40:58;;;;;;;23.90;4.30;;;;;;;;;;5114092;28;20051;-72
2023/01/05 05:43:24;;;;;;;22.85;4.50;;;;;;;;;;5113795;28;20051;-72
2023/01/05 05:45:50;;;;;;;25.90;4.40;;;;;;;;;;5131745;27;20096;-72
2023/01/05 05:48:17;;;;;;;25.00;4.68;;;;;;;;;;5122156;27;20067;-72
2023/01/05 05:50:43;;;;;;;22.15;4.25;;;;;;;;;;5112397;28;20044;-72
2023/01/05 05:53:09;;;;;;;25.17;3.67;;;;;;;;;;5114063;28;20043;-72
2023/01/05 05:55:35;;;;;;;24.38;3.90;;;;;;;;;;5111176;28;20085;-72
2023/01/05 05:58:02;;;;;;;27.63;4.55;;;;;;;;;;5104104;28;20051;-72
2023/01/05 06:00:28;;;;;;;23.70;3.80;;;;;;;;;;5092970;28;20486;-74
2023/01/05 06:02:54;;;;;;;21.25;3.67;;;;;;;;;;5118377;27;20051;-74
2023/01/05 06:05:20;;;;;;;21.38;4.05;;;;;;;;;;5110525;27;20047;-72
2023/01/05 06:07:46;;;;;;;21.23;4.38;;;;;;;;;;5093797;28;20040;-72
2023/01/05 06:10:12;;;;;;;22.90;3.88;;;;;;;;;;5103166;28;20039;-72
2023/01/05 06:12:38;;;;;;;24.38;4.13;;;;;;;;;;5107852;28;20043;-72
2023/01/05 06:15:04;;;;;;;21.13;4.10;;;;;;;;;;5113514;28;20138;-73
2023/01/05 06:17:30;;;;;;;27.15;4.10;;;;;;;;;;5116726;27;20036;-73
2023/01/05 06:19:56;;;;;;;22.63;3.85;;;;;;;;;;5112554;28;20115;-74
2023/01/05 06:22:22;;;;;;;24.02;4.25;;;;;;;;;;5106949;28;20051;-73
2023/01/05 06:24:49;;;;;;;26.65;4.25;;;;;;;;;;5096430;28;20044;-73
2023/01/05 06:27:15;;;;;;;25.05;4.10;;;;;;;;;;5113212;28;20039;-72
2023/01/05 06:29:41;;;;;;;27.40;4.15;;;;;;;;;;5111156;28;20511;-72
2023/01/05 06:32:07;;;;;;;22.15;4.20;;;;;;;;;;5102766;28;20428;-72
2023/01/05 06:34:33;;;;;;;21.30;4.28;;;;;;;;;;5101854;28;20047;-72
2023/01/05 06:36:59;;;;;;;23.58;4.18;;;;;;;;;;5097000;28;20048;-72
2023/01/05 06:39:25;;;;;;;26.30;4.15;;;;;;;;;;5110225;28;20529;-72
2023/01/05 06:41:51;;;;;;;29.95;4.93;;;;;;;;;;5103987;28;20104;-72
2023/01/05 06:44:17;;;;;;;26.15;4.28;;;;;;;;;;5117159;28;20047;-72
2023/01/05 06:46:43;;;;;;;27.60;4.28;;;;;;;;;;5135048;27;20047;-72
2023/01/05 06:49:11;;;;;;;19.83;3.90;;;;;;;;;;5125866;27;20079;-72
2023/01/05 06:51:39;;;;;;;21.70;3.90;;;;;;;;;;5137394;27;20080;-72
2023/01/05 06:54:05;;;;;;;25.13;3.88;;;;;;;;;;5137667;27;20043;-72
2023/01/05 06:56:31;;;;;;;23.27;3.97;;;;;;;;;;5116879;27;20044;-72
2023/01/05 06:58:57;;;;;;;21.90;4.18;;;;;;;;;;5116816;28;20513;-72
2023/01/05 07:01:23;;;;;;;27.10;4.88;;;;;;;;;;5116769;28;20493;-72
2023/01/05 07:03:49;;;;;;;20.85;4.28;;;;;;;;;;5114601;28;20063;-72
2023/01/05 07:06:15;;;;;;;28.05;4.53;;;;;;;;;;5116773;28;20051;-72
2023/01/05 07:08:42;;;;;;;25.98;3.90;;;;;;;;;;5116532;28;20552;-72
2023/01/05 07:11:08;;;;;;;28.23;4.97;;;;;;;;;;5112548;27;20044;-72
2023/01/05 07:13:35;;;;;;;25.77;4.53;;;;;;;;;;5109761;27;20443;-72
2023/01/05 07:16:01;;;;;;;27.88;4.38;;;;;;;;;;5124956;27;20416;-73
2023/01/05 07:18:27;;;;;;;27.08;4.03;;;;;;;;;;5114852;27;20088;-72
2023/01/05 07:20:53;;;;;;;24.20;4.35;;;;;;;;;;5113351;28;20050;-72
2023/01/05 07:23:19;;;;;;;29.60;4.93;;;;;;;;;;5097452;28;20040;-74
2023/01/05 07:25:45;;;;;;;23.13;4.30;;;;;;;;;;5104981;28;20075;-74
2023/01/05 07:28:11;;;;;;;24.83;4.60;;;;;;;;;;5116489;28;20043;-75
2023/01/05 07:30:37;;;;;;;27.42;4.25;;;;;;;;;;5116219;28;20049;-72
2023/01/05 07:33:04;;;;;;;24.35;4.82;;;;;;;;;;5112842;28;20042;-74
2023/01/05 07:35:30;;;;;;;28.77;4.43;;;;;;;;;;5124254;27;20050;-74
2023/01/05 07:37:56;;;;;;;29.52;4.45;;;;;;;;;;5101831;28;20611;-71
2023/01/05 07:40:22;;;;;;;36.03;4.15;;;;;;;;;;5115233;28;20050;-72
2023/01/05 07:42:52;;;;;;;25.95;4.57;;;;;;;;;;5113890;28;20092;-72
2023/01/05 07:45:18;;;;;;;31.25;4.57;;;;;;;;;;5115215;27;20153;-72
2023/01/05 07:47:44;;;;;;;24.77;4.53;;;;;;;;;;5111623;27;20110;-72
2023/01/05 07:50:10;;;;;;;22.20;3.92;;;;;;;;;;5111529;27;20039;-71
2023/01/05 07:52:37;;;;;;;23.05;3.88;;;;;;;;;;5110959;27;20530;-71
2023/01/05 07:55:04;;;;;;;25.60;4.20;;;;;;;;;;5110894;27;20051;-71
2023/01/05 07:57:30;;;;;;;23.63;3.95;;;;;;;;;;5112278;27;20070;-73
2023/01/05 07:59:56;;;;;;;22.52;4.32;;;;;;;;;;5109597;27;20086;-71
2023/01/05 08:02:22;;;;;;;24.05;4.45;;;;;;;;;;5101928;27;20105;-71
2023/01/05 08:04:48;;;;;;;28.95;4.70;;;;;;;;;;5101589;28;20354;-71
2023/01/05 08:07:15;;;;;;;29.40;4.82;;;;;;;;;;5114925;28;20100;-71
2023/01/05 08:12:27;;;;;;;24.88;4.18;;;;;;;;;;5114661;28;20055;-71
2023/01/05 08:14:53;;;;;;;25.75;4.10;;;;;;;;;;5106670;28;20407;-71
2023/01/05 08:17:19;;;;;;;26.33;4.88;;;;;;;;;;5107235;28;20039;-71
2023/01/05 08:19:45;;;;;;;26.48;4.20;;;;;;;;;;5106864;28;20051;-71
2023/01/05 08:22:12;;;;;;;23.85;4.10;;;;;;;;;;5108833;28;20100;-71
2023/01/05 08:24:38;;;;;;;26.10;3.78;;;;;;;;;;5091474;28;20098;-71
2023/01/05 08:27:04;;;;;;;19.80;4.10;;;;;;;;;;5093931;28;20109;-72
2023/01/05 08:29:30;;;;;;;25.13;4.50;;;;;;;;;;5107186;28;20040;-71
2023/01/05 08:31:56;;;;;;;19.73;3.75;;;;;;;;;;5095698;28;20044;-72
2023/01/05 08:34:22;;;;;;;22.73;4.03;;;;;;;;;;5075429;28;20136;-72
2023/01/05 08:36:48;;;;;;;28.15;4.95;;;;;;;;;;5094033;28;20478;-72
2023/01/05 08:39:14;;;;;;;25.27;4.15;;;;;;;;;;5106290;28;20048;-72
2023/01/05 08:41:40;;;;;;;20.30;3.92;;;;;;;;;;5113803;28;20039;-73
2023/01/05 08:44:10;;;;;;;27.73;3.75;;;;;;;;;;5113148;28;20436;-72
2023/01/05 08:46:36;;;;;;;22.25;3.58;;;;;;;;;;5113857;27;20521;-73
2023/01/05 08:49:04;;;;;;;19.60;3.45;;;;;;;;;;5105343;28;20388;-72
2023/01/05 08:51:31;;;;;;;25.00;4.40;;;;;;;;;;5103596;28;20040;-72
2023/01/05 08:53:57;;;;;;;22.83;3.88;;;;;;;;;;5093340;28;20375;-72
2023/01/05 08:56:25;;;;;;;25.15;3.22;;;;;;;;;;5097452;28;20044;-73
2023/01/05 08:58:51;;;;;;;25.88;4.10;;;;;;;;;;5109937;27;20128;-72
2023/01/05 09:01:20;;;;;;;21.48;3.88;;;;;;;;;;5125611;27;20043;-72
2023/01/05 09:03:47;;;;;;;22.20;3.65;;;;;;;;;;5122869;27;20052;-72
2023/01/05 09:06:13;;;;;;;21.75;4.03;;;;;;;;;;5113841;28;20051;-72
2023/01/05 09:08:40;;;;;;;21.13;4.00;;;;;;;;;;5113582;28;20059;-73
2023/01/05 09:11:11;;;;;;;24.45;3.92;;;;;;;;;;5097867;28;20050;-73
2023/01/05 09:13:37;;;;;;;19.98;3.38;;;;;;;;;;5100227;28;20062;-72
2023/01/05 09:16:11;;;;;;;18.13;3.20;;;;;;;;;;5109217;28;20044;-72
2023/01/05 09:18:38;;;;;;;23.50;3.90;;;;;;;;;;5109579;27;20048;-72
2023/01/05 09:21:08;;;;;;;22.75;3.55;;;;;;;;;;5116868;27;20044;-72
2023/01/05 09:23:34;;;;;;;20.73;4.07;;;;;;;;;;5129464;27;20065;-71
2023/01/05 09:26:02;;;;;;;20.63;3.92;;;;;;;;;;5107403;28;20051;-71
2023/01/05 09:28:28;;;;;;;22.10;3.92;;;;;;;;;;5102944;28;20106;-71
2023/01/05 09:30:54;;;;;;;21.65;3.53;;;;;;;;;;5100780;28;20043;-70
2023/01/05 09:33:21;;;;;;;24.98;3.83;;;;;;;;;;5124399;27;20086;-71
2023/01/05 09:35:56;;;;;;;21.88;3.53;;;;;;;;;;5135637;27;20035;-73
2023/01/05 09:38:23;;;;;;;23.77;3.85;;;;;;;;;;5130222;27;20048;-73
2023/01/05 09:40:51;;;;;;;20.38;3.45;;;;;;;;;;5116754;27;20446;-72
2023/01/05 09:43:25;;;;;;;22.92;3.85;;;;;;;;;;5106613;27;20131;-73
2023/01/05 09:45:51;;;;;;;23.98;4.45;;;;;;;;;;5109050;27;20124;-73
2023/01/05 09:48:18;;;;;;;20.85;3.45;;;;;;;;;;5102564;28;20044;-72
2023/01/05 09:50:46;;;;;;;19.30;3.50;;;;;;;;;;5108743;28;20127;-74
2023/01/05 09:53:13;;;;;;;27.10;3.72;;;;;;;;;;5108854;28;20398;-72
2023/01/05 09:55:40;;;;;;;21.50;3.45;;;;;;;;;;5109199;27;20043;-71
2023/01/05 09:58:11;;;;;;;22.25;3.92;;;;;;;;;;5116179;27;20048;-73
2023/01/05 10:00:43;;;;;;;25.15;4.35;;;;;;;;;;5106369;27;20400;-73
2023/01/05 10:03:17;;;;;;;24.52;3.92;;;;;;;;;;5113230;27;20059;-72
2023/01/05 10:05:44;;;;;;;25.02;3.92;;;;;;;;;;5112687;28;20047;-72
2023/01/05 10:08:19;;;;;;;25.65;4.13;;;;;;;;;;5111534;28;20096;-72
2023/01/05 10:13:01;;;;;;;19.45;3.55;;;;;;;;;;5111987;28;20036;-72
2023/01/05 10:13:35;;;;;;;28.13;3.88;;;;;;;;;;5110898;28;20044;-73
2023/01/05 10:16:01;;;;;;;25.55;4.32;;;;;;;;;;5110708;27;20043;-72
2023/01/05 10:18:29;;;;;;;22.10;3.60;;;;;;;;;;5122525;28;20047;-72
2023/01/05 10:20:55;;;;;;;18.77;3.55;;;;;;;;;;5130153;27;20577;-71
2023/01/05 10:23:21;;;;;;;24.80;3.33;;;;;;;;;;5132021;28;20558;-71
2023/01/05 10:25:56;;;;;;;24.50;4.07;;;;;;;;;;5119263;27;20062;-75
2023/01/05 10:28:51;;;;;;;20.83;3.63;;;;;;;;;;5111115;28;20047;-71
2023/01/05 10:31:37;;;;;;;19.92;3.53;;;;;;;;;;5097006;28;20047;-71
2023/01/05 10:34:11;;;;;;;25.67;3.92;;;;;;;;;;5107292;28;20063;-71
2023/01/05 10:36:40;;;;;;;26.30;3.85;;;;;;;;;;5112569;28;20393;-71
2023/01/05 10:39:25;;;;;;;19.75;3.53;;;;;;;;;;5120965;27;20048;-72
2023/01/05 10:42:07;;;;;;;22.42;3.35;;;;;;;;;;5112141;28;20040;-71
2023/01/05 10:44:36;;;;;;;20.58;3.33;;;;;;;;;;5106670;28;20052;-72
2023/01/05 10:47:02;;;;;;;19.70;3.28;;;;;;;;;;5099745;28;20043;-73
2023/01/05 10:49:30;;;;;;;21.50;3.58;;;;;;;;;;5112493;28;20047;-72
2023/01/05 10:51:58;;;;;;;18.63;3.45;;;;;;;;;;5111217;28;20425;-72
2023/01/05 10:54:29;;;;;;;18.45;2.95;;;;;;;;;;5110465;28;20047;-72
2023/01/05 10:56:55;;;;;;;20.48;3.05;;;;;;;;;;5114759;28;20073;-72
2023/01/05 10:59:21;;;;;;;19.00;3.05;;;;;;;;;;5113807;28;20518;-72
2023/01/05 11:01:48;;;;;;;20.77;3.63;;;;;;;;;;5108709;28;20051;-72
2023/01/05 11:04:19;;;;;;;20.80;3.20;;;;;;;;;;5100623;28;20050;-72
2023/01/05 11:06:46;;;;;;;17.80;3.13;;;;;;;;;;5105039;28;20036;-72
2023/01/05 11:09:12;;;;;;;18.25;3.13;;;;;;;;;;5111797;28;20050;-72
2023/01/05 11:11:39;;;;;;;17.30;3.30;;;;;;;;;;5109824;28;20048;-71
2023/01/05 11:14:05;;;;;;;20.02;2.90;;;;;;;;;;5105288;28;20045;-72
2023/01/05 11:16:33;;;;;;;18.25;3.22;;;;;;;;;;5110541;28;20032;-73
2023/01/05 11:19:05;;;;;;;19.75;3.28;;;;;;;;;;5112606;28;20063;-72
2023/01/05 11:21:43;;;;;;;15.35;2.85;;;;;;;;;;5108921;28;20110;-72
2023/01/05 11:24:24;;;;;;;20.30;3.53;;;;;;;;;;5109642;28;20050;-73
2023/01/05 11:26:51;;;;;;;19.42;2.85;;;;;;;;;;5115181;28;20047;-72
2023/01/05 11:29:18;;;;;;;17.65;3.20;;;;;;;;;;5112625;28;20047;-72
2023/01/05 11:31:49;;;;;;;13.77;2.42;;;;;;;;;;5109456;28;20043;-72
2023/01/05 11:34:23;;;;;;;14.75;2.10;;;;;;;;;;5113644;28;20035;-72
2023/01/05 11:36:59;;;;;;;13.98;2.70;;;;;;;;;;5112987;28;20047;-72
2023/01/05 11:39:28;;;;;;;13.13;2.20;;;;;;;;;;5105179;28;20052;-73
2023/01/05 11:42:11;;;;;;;14.32;2.40;;;;;;;;;;5114338;27;20067;-72
2023/01/05 11:44:38;;;;;;;13.98;2.35;;;;;;;;;;5113518;28;20044;-72
2023/01/05 11:47:06;;;;;;;14.43;2.22;;;;;;;;;;5114211;28;20493;-72
2023/01/05 11:49:32;;;;;;;13.93;2.38;;;;;;;;;;5113251;27;20447;-72
2023/01/05 11:51:58;;;;;;;17.30;2.75;;;;;;;;;;5112811;28;20480;-72
2023/01/05 11:54:28;;;;;;;11.63;1.95;;;;;;;;;;5113212;28;20047;-72
2023/01/05 11:57:06;;;;;;;13.77;2.13;;;;;;;;;;5114574;28;20040;-72
2023/01/05 11:59:36;;;;;;;12.02;1.80;;;;;;;;;;5108278;27;20402;-72
2023/01/05 12:02:22;;;;;;;11.63;1.80;;;;;;;;;;5106895;28;20039;-72
2023/01/05 12:04:58;;;;;;;11.40;1.95;;;;;;;;;;5106151;28;20051;-72
2023/01/05 12:07:38;;;;;;;16.10;2.45;;;;;;;;;;5106436;27;20061;-72
2023/01/05 12:10:12;;;;;;;12.85;2.03;;;;;;;;;;5119337;27;20039;-73
2023/01/05 12:12:45;;;;;;;12.95;1.92;;;;;;;;;;5094154;27;20050;-72
2023/01/05 12:15:46;;;;;;;14.18;2.30;;;;;;;;;;5112430;28;20043;-72
2023/01/05 12:18:12;;;;;;;;;;;;;;;;;;5069437;28;20037;-72
2023/01/05 12:20:44;;;;;;;13.63;2.38;;;;;;;;;;5062951;28;20414;-73
2023/01/05 12:23:13;;;;;;;11.88;2.10;;;;;;;;;;5068666;28;20147;-72
2023/01/05 12:25:41;;;;;;;14.27;2.55;;;;;;;;;;5067949;28;20052;-72
2023/01/05 12:28:23;;;;;;;15.65;2.20;;;;;;;;;;5077389;28;20549;-72
2023/01/05 12:30:57;;;;;;;16.48;2.88;;;;;;;;;;5073187;28;20147;-72
2023/01/05 12:33:29;;;;;;;18.17;3.35;;;;;;;;;;5072931;28;20173;-72
2023/01/05 12:35:55;;;;;;;15.45;2.75;;;;;;;;;;5071736;28;20094;-72
2023/01/05 12:38:21;;;;;;;17.25;3.13;;;;;;;;;;5067194;28;20162;-71
2023/01/05 12:41:00;;;;;;;14.00;2.90;;;;;;;;;;5069861;28;20045;-72
2023/01/05 12:43:40;;;;;;;17.90;2.90;;;;;;;;;;5053519;28;20052;-72
2023/01/05 12:46:27;;;;;;;16.35;3.50;;;;;;;;;;5058252;28;20140;-71
2023/01/05 12:48:57;;;;;;;17.13;3.00;;;;;;;;;;5067348;28;20045;-72
2023/01/05 12:51:23;;;;;;;17.25;3.05;;;;;;;;;;5073160;28;20060;-71
2023/01/05 12:54:08;;;;;;;15.85;2.90;;;;;;;;;;5103524;28;20047;-71
2023/01/05 12:56:37;;;;;;;20.80;3.67;;;;;;;;;;5094949;27;20490;-72
2023/01/05 12:59:12;;;;;;;18.08;3.08;;;;;;;;;;5114544;27;20051;-71
2023/01/05 13:01:40;;;;;;;18.35;2.90;;;;;;;;;;5134387;27;20043;-71
2023/01/05 13:04:13;;;;;;;17.40;3.20;;;;;;;;;;5115815;27;20124;-71
2023/01/05 13:06:42;;;;;;;24.10;3.10;;;;;;;;;;5112796;28;20052;-72
2023/01/05 13:09:15;;;;;;;16.55;3.08;;;;;;;;;;5113790;28;20047;-71
2023/01/05 13:11:43;;;;;;;15.63;2.72;;;;;;;;;;5112546;28;20047;-71
2023/01/05 13:14:36;;;;;;;20.38;3.20;;;;;;;;;;5113681;28;20051;-72
2023/01/05 13:17:20;;;;;;;18.35;2.83;;;;;;;;;;5114647;27;20051;-71
2023/01/05 13:19:50;;;;;;;18.45;3.15;;;;;;;;;;5111911;28;20081;-71
2023/01/05 13:22:21;;;;;;;17.48;3.22;;;;;;;;;;5115429;27;20058;-71
2023/01/05 13:24:54;;;;;;;18.83;3.65;;;;;;;;;;5115332;27;20074;-71
2023/01/05 13:27:20;;;;;;;16.27;3.35;;;;;;;;;;5112276;28;20052;-72
2023/01/05 13:29:49;;;;;;;16.67;2.75;;;;;;;;;;5128537;27;20039;-71
2023/01/05 13:32:40;;;;;;;18.23;3.25;;;;;;;;;;5131547;27;20040;-72
2023/01/05 13:35:16;;;;;;;20.65;3.45;;;;;;;;;;5112801;28;20055;-72
2023/01/05 13:37:48;;;;;;;18.20;3.45;;;;;;;;;;5126646;27;20039;-74
2023/01/05 13:40:20;;;;;;;25.73;3.80;;;;;;;;;;5128595;27;20454;-72
2023/01/05 13:42:49;;;;;;;19.73;3.65;;;;;;;;;;5113980;27;20456;-71
2023/01/05 13:45:31;;;;;;;23.73;4.13;;;;;;;;;;5114911;27;20055;-71
2023/01/05 13:48:03;;;;;;;19.30;3.25;;;;;;;;;;5119772;27;20040;-73
2023/01/05 13:50:29;;;;;;;21.70;3.58;;;;;;;;;;5132435;27;20069;-74
2023/01/05 13:53:01;;;;;;;16.42;3.40;;;;;;;;;;5127365;27;20043;-71
2023/01/05 13:55:28;;;;;;;22.08;4.00;;;;;;;;;;5082880;28;20074;-73
2023/01/05 13:57:54;;;;;;;20.67;3.55;;;;;;;;;;5096797;27;20043;-74
2023/01/05 14:00:34;;;;;;;20.42;4.65;;;;;;;;;;5120476;27;20397;-73
2023/01/05 14:03:06;;;;;;;18.50;3.70;;;;;;;;;;5110232;28;20059;-72
2023/01/05 14:05:35;;;;;;;20.58;4.38;;;;;;;;;;5112480;28;20113;-72
2023/01/05 14:08:03;;;;;;;23.75;4.32;;;;;;;;;;5109573;28;20382;-73
2023/01/05 14:10:30;;;;;;;24.02;4.57;;;;;;;;;;5113652;28;20487;-72
2023/01/05 14:12:57;;;;;;;23.98;4.95;;;;;;;;;;5114714;27;20062;-73
2023/01/05 14:15:32;;;;;;;26.17;5.50;;;;;;;;;;5112703;28;20088;-72
2023/01/05 14:18:00;;;;;;;20.40;4.07;;;;;;;;;;5098456;28;20043;-72
2023/01/05 14:20:47;;;;;;;22.48;4.75;;;;;;;;;;5121401;27;20133;-72
2023/01/05 14:23:22;;;;;;;24.60;4.38;;;;;;;;;;5112373;28;20215;-73
2023/01/05 14:25:56;;;;;;;26.08;4.35;;;;;;;;;;5128075;28;20047;-73
2023/01/05 14:28:28;;;;;;;29.08;4.60;;;;;;;;;;5120905;27;20047;-72
2023/01/05 14:31:24;;;;;;;27.98;4.90;;;;;;;;;;5133258;27;20043;-72
2023/01/05 14:33:50;;;;;;;28.15;5.70;;;;;;;;;;5090807;28;20048;-73
2023/01/05 14:36:29;;;;;;;27.42;5.07;;;;;;;;;;5096735;28;20039;-71
2023/01/05 14:38:56;;;;;;;24.88;4.68;;;;;;;;;;5112347;28;20051;-73
2023/01/05 14:41:23;;;;;;;30.42;5.03;;;;;;;;;;5109543;28;20377;-71
2023/01/05 14:43:57;;;;;;;27.33;6.00;;;;;;;;;;5105424;28;20455;-71
2023/01/05 14:46:24;;;;;;;32.65;6.38;;;;;;;;;;5108826;28;20984;-72
2023/01/05 14:49:07;;;;;;;28.63;5.80;;;;;;;;;;5112208;28;20443;-72
2023/01/05 14:51:34;;;;;;;29.95;6.32;;;;;;;;;;5110982;28;20079;-71
2023/01/05 14:54:02;;;;;;;33.58;5.70;;;;;;;;;;5112355;28;20108;-72
2023/01/05 14:56:29;;;;;;;31.33;6.07;;;;;;;;;;5110756;28;20574;-70
2023/01/05 14:58:58;;;;;;;28.17;5.20;;;;;;;;;;5110531;27;20040;-71
2023/01/05 15:01:30;;;;;;;25.88;5.03;;;;;;;;;;5114550;28;20096;-71
2023/01/05 15:04:05;;;;;;;26.42;6.00;;;;;;;;;;5129354;27;20062;-71
2023/01/05 15:06:43;;;;;;;28.67;5.80;;;;;;;;;;5136326;27;20389;-72
2023/01/05 15:09:15;;;;;;;30.27;6.45;;;;;;;;;;5095612;28;20048;-72
2023/01/05 15:11:50;;;;;;;28.13;6.75;;;;;;;;;;5095425;28;20040;-71
2023/01/05 15:14:33;;;;;;;31.17;7.95;;;;;;;;;;5115202;28;20123;-71
2023/01/05 15:17:18;;;;;;;32.33;7.70;;;;;;;;;;5113357;28;20478;-71